sensor_id;sensor_type;location;lat;lon;timestamp;pressure;altitude;pressure_sealevel;temperature;humidity
64711;BME280;51139;45.626;6.850;2023-05-10T00:00:31;81797.50;;;6.97;100.00
64711;BME280;51139;45.626;6.850;2023-05-10T00:02:57;81792.50;;;6.43;100.00
64711;BME280;51139;45.626;6.850;2023-05-10T00:12:05;81782.91;;;6.96;100.00
64711;BME280;51139;45.626;6.850;2023-05-10T00:14:31;81776.59;;;6.99;100.00
64711;BME280;51139;45.626;6.850;2023-05-10T00:16:56;81778.97;;;6.80;100.00
64711;BME280;51139;45.626;6.850;2023-05-10T00:19:22;81769.38;;;6.34;100.00
64711;BME280;51139;45.626;6.850;2023-05-10T00:21:47;81773.81;;;6.64;100.00
64711;BME280;51139;45.626;6.850;2023-05-10T00:24:12;81777.22;;;6.41;100.00
64711;BME280;51139;45.626;6.850;2023-05-10T00:26:38;81776.38;;;6.31;100.00
64711;BME280;51139;45.626;6.850;2023-05-10T00:29:03;81765.19;;;6.64;100.00
64711;BME280;51139;45.626;6.850;2023-05-10T00:31:28;81759.13;;;5.97;100.00
64711;BME280;51139;45.626;6.850;2023-05-10T00:33:54;81750.13;;;6.23;100.00
64711;BME280;51139;45.626;6.850;2023-05-10T00:36:19;81762.97;;;6.11;100.00
64711;BME280;51139;45.626;6.850;2023-05-10T00:38:46;81762.53;;;6.71;100.00
64711;BME280;51139;45.626;6.850;2023-05-10T00:41:11;81766.66;;;6.82;100.00
64711;BME280;51139;45.626;6.850;2023-05-10T00:43:36;81774.50;;;6.57;100.00
64711;BME280;51139;45.626;6.850;2023-05-10T00:46:02;81775.13;;;6.81;100.00
64711;BME280;51139;45.626;6.850;2023-05-10T00:48:28;81762.81;;;6.50;100.00
64711;BME280;51139;45.626;6.850;2023-05-10T00:50:54;81764.31;;;6.61;100.00
64711;BME280;51139;45.626;6.850;2023-05-10T00:53:19;81775.22;;;6.57;100.00
64711;BME280;51139;45.626;6.850;2023-05-10T00:55:45;81780.50;;;6.57;100.00
64711;BME280;51139;45.626;6.850;2023-05-10T00:58:10;81778.00;;;6.26;100.00
64711;BME280;51139;45.626;6.850;2023-05-10T01:00:37;81772.91;;;6.21;100.00
64711;BME280;51139;45.626;6.850;2023-05-10T01:03:03;81791.06;;;5.78;100.00
64711;BME280;51139;45.626;6.850;2023-05-10T01:05:29;81779.34;;;5.63;100.00
64711;BME280;51139;45.626;6.850;2023-05-10T01:07:54;81790.38;;;5.77;100.00
64711;BME280;51139;45.626;6.850;2023-05-10T01:10:19;81784.72;;;6.04;100.00
64711;BME280;51139;45.626;6.850;2023-05-10T01:12:46;81778.81;;;5.80;100.00
64711;BME280;51139;45.626;6.850;2023-05-10T01:15:12;81780.63;;;5.23;100.00
64711;BME280;51139;45.626;6.850;2023-05-10T01:17:40;81777.41;;;5.72;100.00
64711;BME280;51139;45.626;6.850;2023-05-10T01:20:07;81773.50;;;5.96;100.00
64711;BME280;51139;45.626;6.850;2023-05-10T01:40:51;81759.53;;;6.34;100.00
64711;BME280;51139;45.626;6.850;2023-05-10T01:43:27;81765.19;;;6.31;100.00
64711;BME280;51139;45.626;6.850;2023-05-10T01:46:03;81766.19;;;5.79;100.00
64711;BME280;51139;45.626;6.850;2023-05-10T01:48:37;81762.47;;;6.05;100.00
64711;BME280;51139;45.626;6.850;2023-05-10T01:51:04;81764.22;;;6.43;100.00
64711;BME280;51139;45.626;6.850;2023-05-10T01:53:32;81758.97;;;5.87;100.00
64711;BME280;51139;45.626;6.850;2023-05-10T01:56:00;81760.03;;;5.92;100.00
64711;BME280;51139;45.626;6.850;2023-05-10T01:58:29;81765.44;;;5.94;100.00
64711;BME280;51139;45.626;6.850;2023-05-10T02:00:57;81769.44;;;6.10;100.00
64711;BME280;51139;45.626;6.850;2023-05-10T02:03:24;81764.78;;;5.86;100.00
64711;BME280;51139;45.626;6.850;2023-05-10T02:05:52;81766.56;;;5.60;100.00
64711;BME280;51139;45.626;6.850;2023-05-10T02:08:19;81759.19;;;5.81;100.00
64711;BME280;51139;45.626;6.850;2023-05-10T02:10:46;81771.09;;;5.67;100.00
64711;BME280;51139;45.626;6.850;2023-05-10T02:13:16;81772.19;;;5.48;100.00
64711;BME280;51139;45.626;6.850;2023-05-10T02:15:42;81766.59;;;5.44;100.00
64711;BME280;51139;45.626;6.850;2023-05-10T02:18:09;81772.19;;;5.33;100.00
64711;BME280;51139;45.626;6.850;2023-05-10T02:20:36;81769.56;;;5.56;100.00
64711;BME280;51139;45.626;6.850;2023-05-10T02:23:03;81761.69;;;5.48;100.00
64711;BME280;51139;45.626;6.850;2023-05-10T02:25:29;81760.63;;;5.51;100.00
64711;BME280;51139;45.626;6.850;2023-05-10T02:27:56;81760.41;;;5.80;100.00
64711;BME280;51139;45.626;6.850;2023-05-10T02:30:23;81759.81;;;5.97;100.00
64711;BME280;51139;45.626;6.850;2023-05-10T02:32:50;81756.00;;;5.83;100.00
64711;BME280;51139;45.626;6.850;2023-05-10T02:35:16;81751.84;;;5.57;100.00
64711;BME280;51139;45.626;6.850;2023-05-10T02:37:43;81750.75;;;5.91;100.00
64711;BME280;51139;45.626;6.850;2023-05-10T02:40:10;81750.09;;;5.59;100.00
64711;BME280;51139;45.626;6.850;2023-05-10T02:42:37;81751.47;;;5.68;100.00
64711;BME280;51139;45.626;6.850;2023-05-10T02:45:10;81743.91;;;5.80;100.00
64711;BME280;51139;45.626;6.850;2023-05-10T02:47:37;81747.16;;;5.47;100.00
64711;BME280;51139;45.626;6.850;2023-05-10T02:50:03;81753.75;;;5.72;100.00
64711;BME280;51139;45.626;6.850;2023-05-10T02:52:39;81759.00;;;5.79;100.00
64711;BME280;51139;45.626;6.850;2023-05-10T02:55:05;81757.06;;;5.72;100.00
64711;BME280;51139;45.626;6.850;2023-05-10T02:57:34;81750.47;;;5.55;100.00
64711;BME280;51139;45.626;6.850;2023-05-10T03:00:04;81748.75;;;5.27;100.00
64711;BME280;51139;45.626;6.850;2023-05-10T03:02:30;81748.50;;;5.64;100.00
64711;BME280;51139;45.626;6.850;2023-05-10T03:04:56;81750.88;;;5.13;100.00
64711;BME280;51139;45.626;6.850;2023-05-10T03:07:21;81751.72;;;5.39;100.00
64711;BME280;51139;45.626;6.850;2023-05-10T03:09:48;81744.16;;;5.51;100.00
64711;BME280;51139;45.626;6.850;2023-05-10T03:12:33;81747.72;;;4.91;100.00
64711;BME280;51139;45.626;6.850;2023-05-10T03:17:41;81749.44;;;5.35;100.00
64711;BME280;51139;45.626;6.850;2023-05-10T03:20:12;81737.19;;;5.22;100.00
64711;BME280;51139;45.626;6.850;2023-05-10T03:22:47;81747.50;;;5.36;100.00
64711;BME280;51139;45.626;6.850;2023-05-10T03:25:16;81738.34;;;5.68;100.00
64711;BME280;51139;45.626;6.850;2023-05-10T03:27:43;81738.09;;;5.97;100.00
64711;BME280;51139;45.626;6.850;2023-05-10T03:30:11;81740.06;;;5.89;100.00
64711;BME280;51139;45.626;6.850;2023-05-10T03:32:37;81739.75;;;5.69;100.00
64711;BME280;51139;45.626;6.850;2023-05-10T03:35:12;81731.56;;;5.57;100.00
64711;BME280;51139;45.626;6.850;2023-05-10T03:37:38;81727.88;;;5.52;100.00
64711;BME280;51139;45.626;6.850;2023-05-10T03:40:04;81734.22;;;5.26;100.00
64711;BME280;51139;45.626;6.850;2023-05-10T03:42:30;81731.06;;;5.35;100.00
64711;BME280;51139;45.626;6.850;2023-05-10T03:44:55;81730.13;;;5.64;100.00
64711;BME280;51139;45.626;6.850;2023-05-10T03:47:21;81726.72;;;5.07;100.00
64711;BME280;51139;45.626;6.850;2023-05-10T03:49:46;81719.69;;;5.33;100.00
64711;BME280;51139;45.626;6.850;2023-05-10T03:52:12;81727.22;;;5.29;100.00
64711;BME280;51139;45.626;6.850;2023-05-10T03:54:37;81720.91;;;5.24;100.00
64711;BME280;51139;45.626;6.850;2023-05-10T03:57:03;81722.81;;;5.39;100.00
64711;BME280;51139;45.626;6.850;2023-05-10T03:59:29;81720.38;;;5.33;100.00
64711;BME280;51139;45.626;6.850;2023-05-10T04:01:55;81713.91;;;5.26;100.00
64711;BME280;51139;45.626;6.850;2023-05-10T04:04:20;81714.38;;;5.48;100.00
64711;BME280;51139;45.626;6.850;2023-05-10T04:06:46;81718.28;;;5.32;100.00
64711;BME280;51139;45.626;6.850;2023-05-10T04:09:11;81716.56;;;5.03;100.00
64711;BME280;51139;45.626;6.850;2023-05-10T04:11:37;81706.56;;;5.17;100.00
64711;BME280;51139;45.626;6.850;2023-05-10T04:14:02;81708.31;;;5.30;100.00
64711;BME280;51139;45.626;6.850;2023-05-10T04:16:28;81711.97;;;5.35;100.00
64711;BME280;51139;45.626;6.850;2023-05-10T04:18:53;81710.91;;;5.38;100.00
64711;BME280;51139;45.626;6.850;2023-05-10T04:21:19;81711.94;;;5.58;100.00
64711;BME280;51139;45.626;6.850;2023-05-10T04:23:44;81718.47;;;5.18;100.00
64711;BME280;51139;45.626;6.850;2023-05-10T04:26:10;81705.84;;;5.17;100.00
64711;BME280;51139;45.626;6.850;2023-05-10T04:28:35;81708.34;;;4.84;100.00
64711;BME280;51139;45.626;6.850;2023-05-10T04:31:08;81708.50;;;5.24;100.00
64711;BME280;51139;45.626;6.850;2023-05-10T04:33:34;81716.03;;;4.74;100.00
64711;BME280;51139;45.626;6.850;2023-05-10T04:35:59;81713.06;;;5.16;100.00
64711;BME280;51139;45.626;6.850;2023-05-10T04:38:26;81705.84;;;5.24;100.00
64711;BME280;51139;45.626;6.850;2023-05-10T04:40:52;81708.97;;;5.46;100.00
64711;BME280;51139;45.626;6.850;2023-05-10T04:43:18;81707.41;;;5.43;100.00
64711;BME280;51139;45.626;6.850;2023-05-10T04:45:43;81713.03;;;5.32;100.00
64711;BME280;51139;45.626;6.850;2023-05-10T04:48:08;81705.69;;;5.22;100.00
64711;BME280;51139;45.626;6.850;2023-05-10T04:50:34;81703.09;;;5.87;100.00
64711;BME280;51139;45.626;6.850;2023-05-10T04:53:00;81710.50;;;5.65;100.00
64711;BME280;51139;45.626;6.850;2023-05-10T04:55:25;81707.91;;;5.57;100.00
64711;BME280;51139;45.626;6.850;2023-05-10T04:57:52;81717.31;;;5.76;100.00
64711;BME280;51139;45.626;6.850;2023-05-10T05:00:18;81708.19;;;5.69;100.00
64711;BME280;51139;45.626;6.850;2023-05-10T05:02:44;81718.66;;;5.20;100.00
64711;BME280;51139;45.626;6.850;2023-05-10T05:05:11;81712.78;;;5.61;100.00
64711;BME280;51139;45.626;6.850;2023-05-10T05:07:36;81709.81;;;5.57;100.00
64711;BME280;51139;45.626;6.850;2023-05-10T05:10:02;81715.19;;;5.82;100.00
64711;BME280;51139;45.626;6.850;2023-05-10T05:12:28;81716.25;;;5.71;100.00
64711;BME280;51139;45.626;6.850;2023-05-10T05:14:53;81711.16;;;5.73;100.00
64711;BME280;51139;45.626;6.850;2023-05-10T05:17:19;81716.97;;;5.64;100.00
64711;BME280;51139;45.626;6.850;2023-05-10T05:19:44;81718.00;;;5.76;100.00
64711;BME280;51139;45.626;6.850;2023-05-10T05:22:09;81717.13;;;5.81;100.00
64711;BME280;51139;45.626;6.850;2023-05-10T05:24:35;81712.75;;;5.76;100.00
64711;BME280;51139;45.626;6.850;2023-05-10T05:27:03;81718.34;;;5.80;100.00
64711;BME280;51139;45.626;6.850;2023-05-10T05:29:28;81713.66;;;5.63;100.00
64711;BME280;51139;45.626;6.850;2023-05-10T05:31:54;81716.09;;;5.69;100.00
64711;BME280;51139;45.626;6.850;2023-05-10T05:34:19;81721.53;;;5.63;100.00
64711;BME280;51139;45.626;6.850;2023-05-10T05:36:45;81716.28;;;5.63;100.00
64711;BME280;51139;45.626;6.850;2023-05-10T05:39:11;81714.28;;;5.87;100.00
64711;BME280;51139;45.626;6.850;2023-05-10T05:41:36;81716.41;;;5.89;100.00
64711;BME280;51139;45.626;6.850;2023-05-10T05:44:01;81723.94;;;5.84;100.00
64711;BME280;51139;45.626;6.850;2023-05-10T05:46:27;81719.38;;;4.90;100.00
64711;BME280;51139;45.626;6.850;2023-05-10T05:48:52;81729.84;;;5.36;100.00
64711;BME280;51139;45.626;6.850;2023-05-10T05:51:17;81722.09;;;5.54;100.00
64711;BME280;51139;45.626;6.850;2023-05-10T05:53:43;81715.44;;;5.53;100.00
64711;BME280;51139;45.626;6.850;2023-05-10T05:56:08;81715.78;;;5.49;100.00
64711;BME280;51139;45.626;6.850;2023-05-10T05:58:34;81724.50;;;5.67;100.00
64711;BME280;51139;45.626;6.850;2023-05-10T06:01:00;81725.91;;;5.61;100.00
64711;BME280;51139;45.626;6.850;2023-05-10T06:03:26;81719.59;;;5.72;100.00
64711;BME280;51139;45.626;6.850;2023-05-10T06:05:51;81724.78;;;5.00;100.00
64711;BME280;51139;45.626;6.850;2023-05-10T06:08:17;81725.47;;;5.31;100.00
64711;BME280;51139;45.626;6.850;2023-05-10T06:10:43;81720.09;;;5.78;100.00
64711;BME280;51139;45.626;6.850;2023-05-10T06:13:09;81713.63;;;5.71;100.00
64711;BME280;51139;45.626;6.850;2023-05-10T06:15:35;81712.66;;;5.43;100.00
64711;BME280;51139;45.626;6.850;2023-05-10T06:18:00;81720.28;;;5.72;100.00
64711;BME280;51139;45.626;6.850;2023-05-10T06:20:25;81712.09;;;5.60;100.00
64711;BME280;51139;45.626;6.850;2023-05-10T06:22:51;81710.84;;;5.69;100.00
64711;BME280;51139;45.626;6.850;2023-05-10T06:25:16;81713.94;;;5.91;100.00
64711;BME280;51139;45.626;6.850;2023-05-10T06:27:43;81712.50;;;5.33;100.00
64711;BME280;51139;45.626;6.850;2023-05-10T06:30:09;81708.16;;;5.20;100.00
64711;BME280;51139;45.626;6.850;2023-05-10T06:32:34;81712.00;;;5.11;100.00
64711;BME280;51139;45.626;6.850;2023-05-10T06:35:00;81713.19;;;5.34;100.00
64711;BME280;51139;45.626;6.850;2023-05-10T06:37:25;81709.38;;;5.11;100.00
64711;BME280;51139;45.626;6.850;2023-05-10T06:39:51;81721.72;;;5.58;100.00
64711;BME280;51139;45.626;6.850;2023-05-10T06:42:16;81710.47;;;5.73;100.00
64711;BME280;51139;45.626;6.850;2023-05-10T06:44:41;81711.75;;;5.56;100.00
64711;BME280;51139;45.626;6.850;2023-05-10T06:47:08;81710.63;;;5.82;100.00
64711;BME280;51139;45.626;6.850;2023-05-10T06:49:34;81712.94;;;5.63;100.00
64711;BME280;51139;45.626;6.850;2023-05-10T06:51:59;81703.88;;;5.48;100.00
64711;BME280;51139;45.626;6.850;2023-05-10T06:54:24;81713.00;;;5.47;100.00
64711;BME280;51139;45.626;6.850;2023-05-10T06:56:50;81710.47;;;5.73;100.00
64711;BME280;51139;45.626;6.850;2023-05-10T06:59:15;81711.50;;;4.90;100.00
64711;BME280;51139;45.626;6.850;2023-05-10T07:01:42;81718.13;;;4.83;100.00
64711;BME280;51139;45.626;6.850;2023-05-10T07:04:07;81709.56;;;4.59;100.00
64711;BME280;51139;45.626;6.850;2023-05-10T07:06:33;81721.63;;;4.70;100.00
64711;BME280;51139;45.626;6.850;2023-05-10T07:08:59;81724.59;;;4.43;100.00
64711;BME280;51139;45.626;6.850;2023-05-10T07:11:25;81712.91;;;4.99;100.00
64711;BME280;51139;45.626;6.850;2023-05-10T07:13:50;81721.25;;;5.28;100.00
64711;BME280;51139;45.626;6.850;2023-05-10T07:16:15;81713.00;;;5.47;100.00
64711;BME280;51139;45.626;6.850;2023-05-10T07:18:41;81711.94;;;5.50;100.00
64711;BME280;51139;45.626;6.850;2023-05-10T07:21:06;81714.34;;;5.64;100.00
64711;BME280;51139;45.626;6.850;2023-05-10T07:23:32;81714.78;;;5.21;100.00
64711;BME280;51139;45.626;6.850;2023-05-10T07:25:57;81720.56;;;5.35;100.00
64711;BME280;51139;45.626;6.850;2023-05-10T07:28:23;81714.50;;;5.81;100.00
64711;BME280;51139;45.626;6.850;2023-05-10T07:30:49;81711.38;;;5.75;100.00
64711;BME280;51139;45.626;6.850;2023-05-10T07:33:14;81710.25;;;5.94;100.00
64711;BME280;51139;45.626;6.850;2023-05-10T07:35:41;81711.63;;;6.03;100.00
64711;BME280;51139;45.626;6.850;2023-05-10T07:38:06;81718.81;;;6.43;100.00
64711;BME280;51139;45.626;6.850;2023-05-10T07:40:32;81711.97;;;6.07;100.00
64711;BME280;51139;45.626;6.850;2023-05-10T07:42:57;81713.63;;;6.61;100.00
64711;BME280;51139;45.626;6.850;2023-05-10T07:45:23;81713.78;;;6.63;100.00
64711;BME280;51139;45.626;6.850;2023-05-10T07:47:49;81715.81;;;6.47;100.00
64711;BME280;51139;45.626;6.850;2023-05-10T07:50:15;81710.84;;;6.84;100.00
64711;BME280;51139;45.626;6.850;2023-05-10T07:52:40;81712.78;;;6.83;100.00
64711;BME280;51139;45.626;6.850;2023-05-10T07:55:06;81714.03;;;7.08;100.00
64711;BME280;51139;45.626;6.850;2023-05-10T07:57:33;81712.50;;;7.22;100.00
64711;BME280;51139;45.626;6.850;2023-05-10T07:59:58;81712.31;;;7.28;100.00
64711;BME280;51139;45.626;6.850;2023-05-10T08:02:24;81705.31;;;6.97;100.00
64711;BME280;51139;45.626;6.850;2023-05-10T08:04:49;81705.84;;;6.96;100.00
64711;BME280;51139;45.626;6.850;2023-05-10T08:07:14;81703.66;;;7.10;100.00
64711;BME280;51139;45.626;6.850;2023-05-10T08:09:40;81710.63;;;7.40;100.00
64711;BME280;51139;45.626;6.850;2023-05-10T08:12:05;81710.00;;;7.85;100.00
64711;BME280;51139;45.626;6.850;2023-05-10T08:14:31;81707.22;;;7.83;100.00
64711;BME280;51139;45.626;6.850;2023-05-10T08:16:56;81700.69;;;8.37;100.00
64711;BME280;51139;45.626;6.850;2023-05-10T08:19:22;81713.03;;;8.16;100.00
64711;BME280;51139;45.626;6.850;2023-05-10T08:21:48;81708.81;;;8.49;100.00
64711;BME280;51139;45.626;6.850;2023-05-10T08:24:13;81707.09;;;8.61;100.00
64711;BME280;51139;45.626;6.850;2023-05-10T08:26:38;81716.31;;;8.70;100.00
64711;BME280;51139;45.626;6.850;2023-05-10T08:29:04;81706.53;;;8.63;99.22
64711;BME280;51139;45.626;6.850;2023-05-10T08:31:29;81708.81;;;8.66;95.31
64711;BME280;51139;45.626;6.850;2023-05-10T08:33:55;81709.63;;;8.24;95.44
64711;BME280;51139;45.626;6.850;2023-05-10T08:36:20;81710.94;;;7.80;100.00
64711;BME280;51139;45.626;6.850;2023-05-10T08:38:50;81714.44;;;8.17;100.00
64711;BME280;51139;45.626;6.850;2023-05-10T08:41:19;81717.31;;;7.77;100.00
64711;BME280;51139;45.626;6.850;2023-05-10T08:43:46;81722.16;;;7.45;100.00
64711;BME280;51139;45.626;6.850;2023-05-10T08:46:15;81722.56;;;7.41;98.94
64711;BME280;51139;45.626;6.850;2023-05-10T08:48:43;81721.31;;;7.60;100.00
64711;BME280;51139;45.626;6.850;2023-05-10T08:51:09;81723.91;;;7.85;100.00
64711;BME280;51139;45.626;6.850;2023-05-10T08:53:36;81717.78;;;7.83;100.00
64711;BME280;51139;45.626;6.850;2023-05-10T08:56:03;81712.44;;;7.91;100.00
64711;BME280;51139;45.626;6.850;2023-05-10T08:58:28;81726.47;;;7.93;100.00
64711;BME280;51139;45.626;6.850;2023-05-10T09:00:54;81718.69;;;7.60;100.00
64711;BME280;51139;45.626;6.850;2023-05-10T09:03:21;81724.38;;;7.92;100.00
64711;BME280;51139;45.626;6.850;2023-05-10T09:05:46;81727.94;;;8.22;100.00
64711;BME280;51139;45.626;6.850;2023-05-10T09:08:13;81726.50;;;8.38;100.00
64711;BME280;51139;45.626;6.850;2023-05-10T09:10:39;81719.56;;;8.15;100.00
64711;BME280;51139;45.626;6.850;2023-05-10T09:13:08;81738.00;;;8.68;100.00
64711;BME280;51139;45.626;6.850;2023-05-10T09:15:35;81726.47;;;8.11;100.00
64711;BME280;51139;45.626;6.850;2023-05-10T09:18:00;81722.56;;;8.47;100.00
64711;BME280;51139;45.626;6.850;2023-05-10T09:20:27;81728.69;;;8.67;100.00
64711;BME280;51139;45.626;6.850;2023-05-10T09:22:52;81728.56;;;8.12;100.00
64711;BME280;51139;45.626;6.850;2023-05-10T09:25:18;81731.28;;;8.22;100.00
64711;BME280;51139;45.626;6.850;2023-05-10T09:27:47;81732.22;;;8.17;100.00
64711;BME280;51139;45.626;6.850;2023-05-10T09:30:16;81734.00;;;8.50;100.00
64711;BME280;51139;45.626;6.850;2023-05-10T09:32:46;81738.38;;;8.47;100.00
64711;BME280;51139;45.626;6.850;2023-05-10T09:35:16;81735.63;;;7.92;100.00
64711;BME280;51139;45.626;6.850;2023-05-10T09:37:45;81743.75;;;7.86;100.00
64711;BME280;51139;45.626;6.850;2023-05-10T09:40:12;81740.28;;;8.19;100.00
64711;BME280;51139;45.626;6.850;2023-05-10T09:42:38;81748.41;;;7.61;100.00
64711;BME280;51139;45.626;6.850;2023-05-10T09:45:04;81739.16;;;7.69;100.00
64711;BME280;51139;45.626;6.850;2023-05-10T09:47:36;81737.41;;;7.89;100.00
64711;BME280;51139;45.626;6.850;2023-05-10T09:50:03;81739.66;;;7.93;100.00
64711;BME280;51139;45.626;6.850;2023-05-10T09:52:30;81731.13;;;7.85;100.00
64711;BME280;51139;45.626;6.850;2023-05-10T09:54:56;81733.28;;;7.61;100.00
64711;BME280;51139;45.626;6.850;2023-05-10T09:57:23;81736.53;;;7.87;100.00
64711;BME280;51139;45.626;6.850;2023-05-10T09:59:49;81736.88;;;8.26;99.99
64711;BME280;51139;45.626;6.850;2023-05-10T10:02:16;81737.94;;;8.23;99.30
64711;BME280;51139;45.626;6.850;2023-05-10T10:04:42;81738.56;;;8.14;100.00
64711;BME280;51139;45.626;6.850;2023-05-10T10:07:07;81742.91;;;8.37;100.00
64711;BME280;51139;45.626;6.850;2023-05-10T10:09:34;81743.88;;;8.76;100.00
64711;BME280;51139;45.626;6.850;2023-05-10T10:12:01;81738.88;;;8.53;100.00
64711;BME280;51139;45.626;6.850;2023-05-10T10:14:27;81737.28;;;8.95;100.00
64711;BME280;51139;45.626;6.850;2023-05-10T10:16:53;81740.94;;;9.00;100.00
64711;BME280;51139;45.626;6.850;2023-05-10T10:19:19;81731.56;;;8.89;100.00
64711;BME280;51139;45.626;6.850;2023-05-10T10:21:46;81731.25;;;8.40;98.70
64711;BME280;51139;45.626;6.850;2023-05-10T10:24:11;81736.81;;;7.38;98.56
64711;BME280;51139;45.626;6.850;2023-05-10T10:26:38;81735.69;;;7.24;100.00
64711;BME280;51139;45.626;6.850;2023-05-10T10:34:36;81741.31;;;7.20;96.53
64711;BME280;51139;45.626;6.850;2023-05-10T10:37:04;81743.84;;;7.36;89.49
64711;BME280;51139;45.626;6.850;2023-05-10T10:39:30;81737.00;;;7.76;86.70
64711;BME280;51139;45.626;6.850;2023-05-10T10:41:57;81740.34;;;7.33;93.94
64711;BME280;51139;45.626;6.850;2023-05-10T10:52:25;81740.50;;;7.35;100.00
64711;BME280;51139;45.626;6.850;2023-05-10T10:55:02;81736.69;;;7.89;100.00
64711;BME280;51139;45.626;6.850;2023-05-10T10:57:32;81742.13;;;7.91;98.97
64711;BME280;51139;45.626;6.850;2023-05-10T11:00:22;81746.94;;;7.85;97.35
64711;BME280;51139;45.626;6.850;2023-05-10T11:02:50;81745.00;;;7.85;100.00
64711;BME280;51139;45.626;6.850;2023-05-10T11:05:47;81740.03;;;7.72;100.00
64711;BME280;51139;45.626;6.850;2023-05-10T11:08:26;81745.00;;;7.85;99.00
64711;BME280;51139;45.626;6.850;2023-05-10T11:15:53;81738.38;;;7.16;93.85
64711;BME280;51139;45.626;6.850;2023-05-10T11:18:20;81745.38;;;7.64;96.20
64711;BME280;51139;45.626;6.850;2023-05-10T11:21:00;81743.69;;;7.34;95.18
64711;BME280;51139;45.626;6.850;2023-05-10T11:23:32;81746.84;;;7.57;97.35
64711;BME280;51139;45.626;6.850;2023-05-10T11:26:12;81743.25;;;8.06;94.91
64711;BME280;51139;45.626;6.850;2023-05-10T11:28:51;81739.72;;;8.38;93.69
64711;BME280;51139;45.626;6.850;2023-05-10T11:31:18;81742.75;;;8.52;97.90
64711;BME280;51139;45.626;6.850;2023-05-10T11:33:48;81745.28;;;8.78;95.00
64711;BME280;51139;45.626;6.850;2023-05-10T11:36:15;81750.09;;;8.36;90.31
64711;BME280;51139;45.626;6.850;2023-05-10T11:38:40;81745.78;;;8.31;93.77
64711;BME280;51139;45.626;6.850;2023-05-10T11:41:08;81750.44;;;8.05;87.97
64711;BME280;51139;45.626;6.850;2023-05-10T11:43:34;81755.25;;;8.16;87.38
64711;BME280;51139;45.626;6.850;2023-05-10T11:46:01;81748.13;;;7.92;84.62
64711;BME280;51139;45.626;6.850;2023-05-10T11:48:29;81749.44;;;7.40;86.23
64711;BME280;51139;45.626;6.850;2023-05-10T11:50:55;81741.44;;;7.30;80.28
64711;BME280;51139;45.626;6.850;2023-05-10T11:53:22;81748.88;;;7.24;85.94
64711;BME280;51139;45.626;6.850;2023-05-10T11:55:47;81745.84;;;7.27;84.55
64711;BME280;51139;45.626;6.850;2023-05-10T11:58:13;81747.81;;;7.44;82.76
64711;BME280;51139;45.626;6.850;2023-05-10T12:00:39;81749.16;;;7.53;83.40
64711;BME280;51139;45.626;6.850;2023-05-10T12:03:05;81749.03;;;8.04;84.19
64711;BME280;51139;45.626;6.850;2023-05-10T12:05:34;81744.47;;;6.68;82.29
64711;BME280;51139;45.626;6.850;2023-05-10T12:08:14;81749.38;;;6.71;80.54
64711;BME280;51139;45.626;6.850;2023-05-10T12:10:40;81755.00;;;6.68;79.32
64711;BME280;51139;45.626;6.850;2023-05-10T12:13:10;81757.28;;;6.71;76.97
64711;BME280;51139;45.626;6.850;2023-05-10T12:15:36;81764.78;;;6.75;80.09
64711;BME280;51139;45.626;6.850;2023-05-10T12:18:01;81763.50;;;6.51;79.86
64711;BME280;51139;45.626;6.850;2023-05-10T12:20:28;81760.75;;;6.41;75.85
64711;BME280;51139;45.626;6.850;2023-05-10T12:22:57;81754.22;;;6.01;75.35
64711;BME280;51139;45.626;6.850;2023-05-10T12:25:29;81764.34;;;6.20;75.48
64711;BME280;51139;45.626;6.850;2023-05-10T12:27:57;81759.22;;;6.30;77.66
64711;BME280;51139;45.626;6.850;2023-05-10T12:30:25;81763.09;;;5.42;75.83
64711;BME280;51139;45.626;6.850;2023-05-10T12:32:51;81767.28;;;5.60;80.22
64711;BME280;51139;45.626;6.850;2023-05-10T12:35:19;81765.56;;;5.01;81.48
64711;BME280;51139;45.626;6.850;2023-05-10T12:37:50;81765.91;;;4.97;79.99
64711;BME280;51139;45.626;6.850;2023-05-10T12:40:16;81761.09;;;5.73;79.38
64711;BME280;51139;45.626;6.850;2023-05-10T12:42:42;81761.94;;;5.99;80.17
64711;BME280;51139;45.626;6.850;2023-05-10T12:45:08;81758.81;;;5.85;82.09
64711;BME280;51139;45.626;6.850;2023-05-10T12:47:34;81763.06;;;5.49;84.57
64711;BME280;51139;45.626;6.850;2023-05-10T12:50:01;81756.78;;;6.24;80.53
64711;BME280;51139;45.626;6.850;2023-05-10T12:52:28;81750.78;;;6.72;85.27
64711;BME280;51139;45.626;6.850;2023-05-10T12:54:53;81756.72;;;5.83;88.32
64711;BME280;51139;45.626;6.850;2023-05-10T12:57:22;81756.41;;;6.61;94.15
64711;BME280;51139;45.626;6.850;2023-05-10T12:59:47;81754.75;;;6.81;89.51
64711;BME280;51139;45.626;6.850;2023-05-10T13:02:13;81761.16;;;6.96;89.28
64711;BME280;51139;45.626;6.850;2023-05-10T13:04:40;81752.97;;;6.84;94.46
64711;BME280;51139;45.626;6.850;2023-05-10T13:07:09;81755.31;;;6.72;85.38
64711;BME280;51139;45.626;6.850;2023-05-10T13:09:34;81747.94;;;6.37;90.47
64711;BME280;51139;45.626;6.850;2023-05-10T13:12:00;81746.22;;;6.98;90.35
64711;BME280;51139;45.626;6.850;2023-05-10T13:14:26;81748.47;;;7.02;88.66
64711;BME280;51139;45.626;6.850;2023-05-10T13:16:51;81744.06;;;7.55;82.69
64711;BME280;51139;45.626;6.850;2023-05-10T13:19:17;81744.53;;;7.79;83.24
64711;BME280;51139;45.626;6.850;2023-05-10T13:21:43;81745.94;;;7.98;84.23
64711;BME280;51139;45.626;6.850;2023-05-10T13:24:09;81747.47;;;7.66;86.58
64711;BME280;51139;45.626;6.850;2023-05-10T13:26:35;81752.97;;;7.60;90.19
64711;BME280;51139;45.626;6.850;2023-05-10T13:29:02;81748.25;;;7.58;91.14
64711;BME280;51139;45.626;6.850;2023-05-10T13:31:27;81750.75;;;7.31;87.61
64711;BME280;51139;45.626;6.850;2023-05-10T13:33:52;81743.75;;;7.86;85.05
64711;BME280;51139;45.626;6.850;2023-05-10T13:36:18;81747.19;;;7.97;92.91
64711;BME280;51139;45.626;6.850;2023-05-10T13:38:43;81739.34;;;8.24;93.86
64711;BME280;51139;45.626;6.850;2023-05-10T13:41:10;81744.91;;;7.76;93.02
64711;BME280;51139;45.626;6.850;2023-05-10T13:43:35;81748.88;;;8.02;91.60
64711;BME280;51139;45.626;6.850;2023-05-10T13:46:01;81749.59;;;8.20;85.24